KOQU

Quonset State Airport

North Kingstown, Rhode Island, USA
METAR KOQU 162250Z 07018KT 1 1/2SM -RA BR SCT007 BKN011 OVC016 05/04 A2984 RMK LAST
Observed Flight Rules
Dec-16 @ 22:50 UTC (2 hours ago) Instrument Flight Rules
Wind Visibility Clouds Conditions
70° at 18 knots 1 1/2 miles
  • Scattered at 700' AGL
  • Broken at 1,100' AGL
  • Overcast at 1,600' AGL
  • Light Rain
  • Mist
Temperatures Readings
Current 5°C / 41°F
Dewpoint 4°C / 39°F
Humidity 93%
Altimeter 29.84" Hg
Pressure 1010 hPa
Elevation 6
METAR KOQU 162250Z 07018KT 1 1/2SM -RA BR SCT007 BKN011 OVC016 05/04 A2984 RMK LAST
Observed Flight Rules
Dec-16 @ 22:50 UTC
(2 hours ago)
IFR
Wind Visibility
70° at 18 knots 1 1/2 miles
Clouds
  • Scattered at 700' AGL
  • Broken at 1,100' AGL
  • Overcast at 1,600' AGL
Conditions
  • Light Rain
  • Mist
Temperature Dewpoint
5°C / 41°F 4°C / 39°F
Humidity Altimeter Pressure
93% 29.84" Hg 1010 hPa